Landrienne, Canada
Current Conditions -  °F | °C
As of 10:00 AM on Friday 19 Dec 2014 (Local Time) from CYVO Reporting Station
Few Clouds Few Clouds  
Wind Chill: -10°   Ceiling: Unl
Heat Index:   Visibility: 15mi
Dew Point: -2°   Wind: 6mph
Humidity: 85%   Direction: 320°NW
Pressure: 30.2"   Gusts: NA
Location:  48.55°N, 77.95°W
Report Text: CYVO 191500Z 32005KT 15SM FEW270 M17/M19 A3020 RMK CI1 CI TR SLP261
Loading
Personal Weather Stations






























Interactive Weather Map New forecast layout! Learn more

10-Day Weather Forecast

Advertisements
Track Severe Weather on mobile